Time;durP1;ratioP1;P1;durP2;ratioP2;P2;SDS_P1;SDS_P2;PMS_P1;PMS_P2;Temp;Humidity;BMP_temperature;BMP_pressure;BME280_temperature;BME280_humidity;BME280_pressure;Samples;Min_cycle;Max_cycle;Signal;HPM_P1;HPM_P2
2024/01/12 00:02:02;;;;;;;;;;;;;;;5.91;100.00;100990.03;5003208;28;20319;-79
2024/01/12 00:04:28;;;;;;;;;;;;;;;5.97;100.00;100994.44;5002626;28;19921;-78
2024/01/12 00:06:53;;;;;;;;;;;;;;;6.04;100.00;100992.63;5002966;28;19934;-78
2024/01/12 00:09:21;;;;;;;;;;;;;;;6.08;100.00;100994.34;5002769;28;19924;-85
2024/01/12 00:11:49;;;;;;;;;;;;;;;6.14;100.00;101008.38;4984204;28;19917;-89
2024/01/12 00:14:14;;;;;;;;;;;;;;;6.19;100.00;100995.19;5002871;28;19922;-84
2024/01/12 06:13:45;;;;;;;;;;;;;;;6.29;100.00;101067.94;5089850;27;20432;-79
2024/01/12 06:16:11;;;;;;;;;;;;;;;6.30;100.00;101064.44;5089671;28;19924;-77
2024/01/12 06:18:37;;;;;;;;;;;;;;;6.33;100.00;101059.16;5089572;28;20050;-79
2024/01/12 06:21:02;;;;;;;;;;;;;;;6.38;100.00;101061.75;5089560;28;20363;-78
2024/01/12 06:23:27;;;;;;;;;;;;;;;6.41;100.00;101058.25;5089628;28;19921;-81
2024/01/12 06:25:53;;;;;;;;;;;;;;;6.48;100.00;101062.59;5088297;28;19924;-78
2024/01/12 06:28:18;;;;;;;;;;;;;;;6.49;100.00;101056.44;5088570;28;19916;-77
2024/01/12 06:30:43;;;;;;;;;;;;;;;6.51;100.00;101047.66;5089229;28;19927;-78
2024/01/12 06:33:09;;;;;;;;;;;;;;;6.57;100.00;101053.75;5088417;28;19963;-76
2024/01/12 06:35:35;;;;;;;;;;;;;;;6.60;100.00;101051.09;5089235;28;19924;-77
2024/01/12 06:38:00;;;;;;;;;;;;;;;6.62;100.00;101054.59;5088487;28;20378;-77
2024/01/12 06:40:25;;;;;;;;;;;;;;;6.63;100.00;101059.84;5087841;28;20049;-77
2024/01/12 06:42:51;;;;;;;;;;;;;;;6.64;100.00;101069.50;5089154;28;19928;-77
2024/01/12 06:45:16;;;;;;;;;;;;;;;6.63;100.00;101059.84;5089026;28;20003;-78
2024/01/12 06:47:43;;;;;;;;;;;;;;;6.67;100.00;101058.97;5121866;28;19920;-77
2024/01/12 06:50:08;;;;;;;;;;;;;;;6.68;100.00;101070.38;5088862;28;19920;-77
2024/01/12 06:52:33;;;;;;;;;;;;;;;6.70;100.00;101066.84;5088847;28;19920;-78
2024/01/12 06:54:58;;;;;;;;;;;;;;;6.72;100.00;101061.56;5087556;28;20332;-77
2024/01/12 06:57:24;;;;;;;;;;;;;;;6.74;100.00;101065.06;5088799;28;19923;-77
2024/01/12 06:59:49;;;;;;;;;;;;;;;6.76;100.00;101059.78;5121639;28;19917;-78
2024/01/12 07:02:15;;;;;;;;;;;;;;;6.78;100.00;101063.28;5088791;28;19939;-79
2024/01/12 07:04:40;;;;;;;;;;;;;;;6.81;100.00;101063.25;5088748;28;19916;-78
2024/01/12 07:07:05;;;;;;;;;;;;;;;6.82;100.00;101057.97;5088644;28;19921;-80
2024/01/12 07:09:30;;;;;;;;;;;;;;;6.82;100.00;101062.38;5088438;28;19971;-77
2024/01/12 07:11:56;;;;;;;;;;;;;;;6.86;100.00;101057.09;5085778;28;19931;-80
2024/01/12 07:14:21;;;;;;;;;;;;;;;6.88;100.00;101052.66;5088513;28;19917;-80
2024/01/12 07:16:46;;;;;;;;;;;;;;;6.89;100.00;101061.44;5088575;28;19920;-80
2024/01/12 07:19:12;;;;;;;;;;;;;;;6.91;100.00;101071.09;5088608;28;19923;-81
2024/01/12 07:21:37;;;;;;;;;;;;;;;6.95;100.00;101066.66;5088290;28;19970;-77
2024/01/12 07:24:03;;;;;;;;;;;;;;;6.93;100.00;101065.81;5080954;28;19927;-80
2024/01/12 07:26:28;;;;;;;;;;;;;;;6.93;100.00;101071.06;5073498;28;20298;-81
2024/01/12 07:28:54;;;;;;;;;;;;;;;6.96;100.00;101073.69;5074936;28;19917;-79
2024/01/12 07:31:19;;;;;;;;;;;;;;;6.99;100.00;101070.13;5074504;28;20007;-82
2024/01/12 07:33:44;;;;;;;;;;;;;;;6.98;100.00;101074.53;5074722;28;20074;-81
2024/01/12 07:36:10;;;;;;;;;;;;;;;7.02;100.00;101076.28;5074611;28;19917;-77
2024/01/12 07:38:35;;;;;;;;;;;;;;;7.01;100.00;101085.06;5074483;28;19920;-78
2024/01/12 07:41:00;;;;;;;;;;;;;;;7.02;100.00;101086.81;5073081;28;19923;-76
2024/01/12 07:43:30;;;;;;;;;;;;;;;7.00;100.00;101085.94;5074647;28;20364;-78
2024/01/12 07:45:55;;;;;;;;;;;;;;;7.05;100.00;101092.06;5074572;28;20256;-79
2024/01/12 07:48:21;;;;;;;;;;;;;;;7.06;100.00;101090.31;5074514;28;19923;-77
2024/01/12 07:50:46;;;;;;;;;;;;;;;7.05;100.00;101096.44;5074472;28;20320;-80
2024/01/12 07:53:11;;;;;;;;;;;;;;;7.07;100.00;101107.88;5073966;28;20413;-77
2024/01/12 07:55:37;;;;;;;;;;;;;;;7.07;100.00;101092.94;5105596;28;20381;-81
2024/01/12 08:50:17;;;;;;;;;;;;;;;7.22;100.00;101138.50;4926151;29;20025;-85
2024/01/12 08:52:46;;;;;;;;;;;;;;;7.24;100.00;101139.38;4935879;29;20017;-89
2024/01/12 08:55:12;;;;;;;;;;;;;;;7.22;100.00;101142.00;4934261;29;19922;-82
2024/01/12 08:57:37;;;;;;;;;;;;;;;7.24;100.00;101139.38;4935964;29;20285;-81
2024/01/12 09:00:06;;;;;;;;;;;;;;;7.25;100.00;101135.84;4935914;29;19923;-80
2024/01/12 09:02:32;;;;;;;;;;;;;;;7.25;100.00;101131.44;4934649;29;20450;-82
2024/01/12 09:04:57;;;;;;;;;;;;;;;7.27;100.00;101124.41;4934397;29;19923;-82
2024/01/12 09:07:22;;;;;;;;;;;;;;;7.27;100.00;101134.06;4918855;29;19922;-78
2024/01/12 09:09:48;;;;;;;;;;;;;;;6.65;100.00;101137.13;4935707;29;20263;-79
2024/01/12 09:12:20;;;;;;;;;;;;;;;5.98;100.00;101146.13;4935698;29;19923;-88
2024/01/12 09:14:46;;;;;;;;;;;;;;;5.69;100.00;101152.28;4936065;29;19981;-84
2024/01/12 09:17:11;;;;;;;;;;;;;;;5.53;100.00;101148.78;4935631;29;19921;-78
2024/01/12 09:19:37;;;;;;;;;;;;;;;5.39;100.00;101140.03;4934418;29;19982;-80
2024/01/12 09:22:03;;;;;;;;;;;;;;;5.36;100.00;101145.28;4935545;29;19915;-77
2024/01/12 09:24:28;;;;;;;;;;;;;;;5.25;100.00;101140.91;4935749;29;20259;-79
2024/01/12 09:26:54;;;;;;;;;;;;;;;5.19;100.00;101138.28;4935399;29;19973;-77
2024/01/12 09:29:19;;;;;;;;;;;;;;;5.17;100.00;101144.38;4934209;29;19919;-78
2024/01/12 09:31:44;;;;;;;;;;;;;;;5.09;100.00;101147.91;4935329;29;20037;-79
2024/01/12 09:34:09;;;;;;;;;;;;;;;5.11;100.00;101150.53;4933881;29;20009;-80
2024/01/12 09:36:35;;;;;;;;;;;;;;;5.04;100.00;101139.13;4935201;29;20393;-79
2024/01/12 09:39:00;;;;;;;;;;;;;;;5.02;100.00;101145.25;4933699;29;19974;-78
2024/01/12 09:41:36;;;;;;;;;;;;;;;5.00;100.00;101144.38;4933907;29;20017;-78
2024/01/12 09:44:03;;;;;;;;;;;;;;;5.00;100.00;101145.25;4935171;29;19919;-79
2024/01/12 09:46:30;;;;;;;;;;;;;;;4.96;100.00;101147.88;4934949;29;20010;-79
2024/01/12 09:48:55;;;;;;;;;;;;;;;4.88;100.00;101143.50;4933549;29;20307;-78
2024/01/12 09:51:21;;;;;;;;;;;;;;;4.86;100.00;101139.09;4935088;29;19925;-81
2024/01/12 09:53:46;;;;;;;;;;;;;;;4.87;100.00;101146.13;4934939;29;19923;-78
2024/01/12 09:56:11;;;;;;;;;;;;;;;4.84;100.00;101141.72;4917943;29;19925;-78
2024/01/12 09:58:38;;;;;;;;;;;;;;;4.80;100.00;101145.19;4934985;29;19922;-80
2024/01/12 10:01:04;;;;;;;;;;;;;;;4.79;100.00;101147.84;4934921;29;20389;-79
2024/01/12 10:03:30;;;;;;;;;;;;;;;4.77;100.00;101155.72;4933481;29;19922;-78
2024/01/12 10:05:55;;;;;;;;;;;;;;;4.76;100.00;101153.09;4934830;29;19919;-79
2024/01/12 10:08:21;;;;;;;;;;;;;;;4.75;100.00;101149.56;4934921;29;19933;-79
2024/01/12 10:10:46;;;;;;;;;;;;;;;4.70;100.00;101146.06;4934872;29;20009;-78
2024/01/12 10:13:13;;;;;;;;;;;;;;;4.70;100.00;101149.56;4935209;29;19927;-80
2024/01/12 10:15:40;;;;;;;;;;;;;;;4.67;100.00;101140.78;4934785;29;19958;-78
2024/01/12 10:18:05;;;;;;;;;;;;;;;4.68;100.00;101145.19;4932433;29;19954;-77
2024/01/12 10:20:34;;;;;;;;;;;;;;;4.67;100.00;101143.41;4934781;29;19969;-80
2024/01/12 10:23:00;;;;;;;;;;;;;;;4.66;100.00;101146.91;4934080;29;19923;-79
2024/01/12 10:25:25;;;;;;;;;;;;;;;4.63;100.00;101144.31;4934852;29;20011;-79
2024/01/12 10:27:54;;;;;;;;;;;;;;;4.61;100.00;101146.91;4934881;29;19977;-77
2024/01/12 10:30:19;;;;;;;;;;;;;;;4.60;100.00;101149.53;4917099;29;20329;-79
2024/01/12 10:32:49;;;;;;;;;;;;;;;4.59;100.00;101153.03;4932935;29;19927;-80
2024/01/12 10:35:15;;;;;;;;;;;;;;;4.58;100.00;101148.63;4934714;29;19974;-82
2024/01/12 10:37:40;;;;;;;;;;;;;;;4.56;100.00;101151.25;4934607;29;20017;-80
2024/01/12 10:40:06;;;;;;;;;;;;;;;4.55;100.00;101157.41;4934486;29;19926;-78
2024/01/12 10:42:33;;;;;;;;;;;;;;;4.52;100.00;101155.63;4934606;29;19926;-79
2024/01/12 10:44:59;;;;;;;;;;;;;;;4.52;100.00;101155.63;4933767;29;19918;-79
2024/01/12 10:47:26;;;;;;;;;;;;;;;4.51;100.00;101150.38;4933831;29;20297;-78
2024/01/12 10:50:01;;;;;;;;;;;;;;;4.47;100.00;101148.63;4933824;29;20393;-82
2024/01/12 10:52:29;;;;;;;;;;;;;;;4.45;100.00;101148.63;4934416;29;19919;-80
2024/01/12 10:54:57;;;;;;;;;;;;;;;4.46;100.00;101145.09;4934176;29;19926;-79
2024/01/12 10:57:22;;;;;;;;;;;;;;;4.47;100.00;101156.50;4934599;29;19974;-81
2024/01/12 10:59:49;;;;;;;;;;;;;;;4.47;100.00;101153.88;4936716;29;19923;-78
2024/01/12 11:02:14;;;;;;;;;;;;;;;4.45;100.00;101146.00;4937877;29;20290;-82
2024/01/12 11:04:40;;;;;;;;;;;;;;;4.42;100.00;101142.44;4936770;29;19982;-81
2024/01/12 11:07:06;;;;;;;;;;;;;;;4.40;100.00;101138.94;4938021;29;19926;-82
2024/01/12 11:09:31;;;;;;;;;;;;;;;4.36;100.00;101143.31;4938129;29;19923;-80
2024/01/12 11:12:04;;;;;;;;;;;;;;;4.40;100.00;101129.31;4937643;29;19974;-83
2024/01/12 11:14:31;;;;;;;;;;;;;;;4.38;100.00;101136.31;4936847;29;20297;-82
2024/01/12 11:16:56;;;;;;;;;;;;;;;4.33;100.00;101138.06;4937670;29;20402;-81
2024/01/12 11:19:30;;;;;;;;;;;;;;;4.37;100.00;101131.94;4936396;29;19930;-87
2024/01/12 11:22:23;;;;;;;;;;;;;;;4.36;100.00;101130.19;4937545;29;19923;-77
2024/01/12 11:24:48;;;;;;;;;;;;;;;4.36;100.00;101128.44;4933793;29;19919;-81
2024/01/12 11:27:13;;;;;;;;;;;;;;;4.36;100.00;101122.31;4937379;29;19923;-81
2024/01/12 11:29:39;;;;;;;;;;;;;;;4.34;100.00;101142.41;4937492;29;19975;-82
2024/01/12 11:32:05;;;;;;;;;;;;;;;4.31;100.00;101143.28;4937229;29;19973;-79
2024/01/12 11:34:31;;;;;;;;;;;;;;;4.32;100.00;101139.81;4936505;29;20347;-82
2024/01/12 11:37:00;;;;;;;;;;;;;;;4.31;100.00;101143.28;4936015;29;19918;-83
2024/01/12 11:39:26;;;;;;;;;;;;;;;4.33;100.00;101130.19;4937088;29;19926;-78
2024/01/12 11:41:55;;;;;;;;;;;;;;;4.30;100.00;101135.41;4937342;29;20309;-81
2024/01/12 11:44:22;;;;;;;;;;;;;;;4.30;100.00;101131.03;4935879;29;19942;-83
2024/01/12 11:46:48;;;;;;;;;;;;;;;4.32;100.00;101133.66;4919995;29;20012;-78
2024/01/12 11:49:15;;;;;;;;;;;;;;;4.34;100.00;101121.41;4935702;29;19997;-82
2024/01/12 11:51:40;;;;;;;;;;;;;;;4.28;100.00;101114.41;4937064;29;20375;-82
2024/01/12 11:54:06;;;;;;;;;;;;;;;4.31;100.00;101114.44;4936720;29;19922;-80
2024/01/12 11:56:32;;;;;;;;;;;;;;;4.26;100.00;101115.25;4937110;29;20074;-82
2024/01/12 11:58:57;;;;;;;;;;;;;;;4.26;100.00;101120.50;4937224;29;20361;-82
2024/01/12 12:01:24;;;;;;;;;;;;;;;4.31;100.00;101113.56;4937097;29;19929;-81
2024/01/12 12:03:49;;;;;;;;;;;;;;;4.29;100.00;101105.69;4935716;29;19918;-86
2024/01/12 12:06:15;;;;;;;;;;;;;;;4.29;100.00;101097.81;4936784;29;19923;-80
2024/01/12 12:08:40;;;;;;;;;;;;;;;4.28;100.00;101100.44;4936634;29;19918;-82
2024/01/12 12:11:06;;;;;;;;;;;;;;;4.29;100.00;101097.81;4936613;29;19970;-82
2024/01/12 12:13:33;;;;;;;;;;;;;;;4.27;100.00;101101.28;4936726;29;20361;-82
2024/01/12 12:15:58;;;;;;;;;;;;;;;4.25;100.00;101100.41;4936583;29;19919;-82
2024/01/12 12:18:24;;;;;;;;;;;;;;;4.25;100.00;101092.53;4918411;29;19921;-82
2024/01/12 12:20:49;;;;;;;;;;;;;;;4.24;100.00;101075.03;4936530;29;20009;-80
2024/01/12 12:23:14;;;;;;;;;;;;;;;4.28;100.00;101071.56;4936418;29;19915;-81
2024/01/12 12:25:40;;;;;;;;;;;;;;;4.27;100.00;101064.56;4935207;29;19942;-80
2024/01/12 12:28:05;;;;;;;;;;;;;;;4.22;100.00;101071.53;4936441;29;20066;-80
2024/01/12 12:30:31;;;;;;;;;;;;;;;4.22;100.00;101061.91;4936365;29;19954;-80
2024/01/12 12:32:58;;;;;;;;;;;;;;;4.23;100.00;101050.56;4933755;29;20005;-78
2024/01/12 12:35:23;;;;;;;;;;;;;;;4.23;100.00;101054.91;4936297;29;19919;-89
2024/01/12 12:37:49;;;;;;;;;;;;;;;4.24;100.00;101060.16;4936338;29;19923;-79
2024/01/12 12:40:15;;;;;;;;;;;;;;;4.25;100.00;101046.19;4919167;29;20282;-81
2024/01/12 12:42:40;;;;;;;;;;;;;;;4.27;100.00;101043.56;4936345;29;19919;-81
2024/01/12 12:45:06;;;;;;;;;;;;;;;4.26;100.00;101045.31;4936282;29;19974;-89
2024/01/12 12:47:32;;;;;;;;;;;;;;;4.19;100.00;101036.53;4950060;28;19923;-86
2024/01/12 12:50:00;;;;;;;;;;;;;;;4.19;100.00;101041.78;4935089;29;19923;-91
2024/01/12 12:52:26;;;;;;;;;;;;;;;4.19;100.00;101027.78;4936010;29;19919;-87
2024/01/12 12:54:52;;;;;;;;;;;;;;;4.23;100.00;101031.28;5100214;23;20498;-93
2024/01/12 12:57:17;;;;;;;;;;;;;;;4.24;100.00;101027.81;4972844;28;20064;-81
2024/01/12 12:59:43;;;;;;;;;;;;;;;4.26;100.00;101020.81;4974437;28;20009;-83
2024/01/12 13:02:10;;;;;;;;;;;;;;;4.22;100.00;101025.19;4974117;28;20273;-77
2024/01/12 13:04:58;;;;;;;;;;;;;;;4.27;100.00;101014.69;4973226;28;20151;-92
2024/01/12 13:07:23;;;;;;;;;;;;;;;4.65;100.00;101013.91;4974382;28;20415;-78
2024/01/12 13:09:49;;;;;;;;;;;;;;;5.00;100.00;101010.41;4974134;28;19961;-81
2024/01/12 13:12:14;;;;;;;;;;;;;;;5.23;100.00;101000.75;4973859;28;19941;-82
2024/01/12 13:14:39;;;;;;;;;;;;;;;5.41;100.00;101002.47;4972808;28;20381;-83
2024/01/12 13:17:05;;;;;;;;;;;;;;;5.55;100.00;101010.34;4973914;28;20328;-77
2024/01/12 13:19:30;;;;;;;;;;;;;;;5.64;100.00;101012.03;4972564;28;19923;-79
2024/01/12 13:21:55;;;;;;;;;;;;;;;5.74;100.00;101005.00;4973464;28;20448;-78
2024/01/12 13:24:21;;;;;;;;;;;;;;;5.81;100.00;101009.38;4973881;28;19918;-79
2024/01/12 13:26:47;;;;;;;;;;;;;;;5.89;100.00;101015.47;4973874;28;20362;-81
2024/01/12 13:29:12;;;;;;;;;;;;;;;5.94;100.00;101013.69;4973830;28;20008;-78
2024/01/12 13:31:42;;;;;;;;;;;;;;;5.99;100.00;101009.31;4973806;28;19927;-77
2024/01/12 13:34:07;;;;;;;;;;;;;;;6.03;100.00;101018.09;4972328;28;19918;-80
2024/01/12 13:36:32;;;;;;;;;;;;;;;6.08;100.00;101010.13;4973850;28;19976;-80
2024/01/12 13:38:58;;;;;;;;;;;;;;;6.16;100.00;101013.63;4972129;28;19918;-82
2024/01/12 13:41:23;;;;;;;;;;;;;;;6.17;100.00;101000.47;4973624;28;20082;-84
2024/01/12 13:43:49;;;;;;;;;;;;;;;6.24;100.00;101000.41;4973722;28;19918;-81
2024/01/12 13:46:14;;;;;;;;;;;;;;;6.27;100.00;100995.13;4972196;28;19926;-80
2024/01/12 13:48:41;;;;;;;;;;;;;;;6.29;100.00;101002.13;4971001;28;19926;-80
2024/01/12 13:51:06;;;;;;;;;;;;;;;6.36;100.00;101000.34;4973388;28;20381;-83
2024/01/12 13:53:31;;;;;;;;;;;;;;;6.40;100.00;100996.81;4972091;28;19924;-81
2024/01/12 13:55:57;;;;;;;;;;;;;;;6.45;100.00;101000.28;4973288;28;19926;-80
2024/01/12 13:58:22;;;;;;;;;;;;;;;6.48;100.00;100995.00;4972727;28;19957;-80
2024/01/12 14:00:47;;;;;;;;;;;;;;;6.52;100.00;100991.44;4973451;28;19918;-80
2024/01/12 14:03:13;;;;;;;;;;;;;;;6.59;100.00;100992.31;4970750;28;19964;-88
2024/01/12 14:05:40;;;;;;;;;;;;;;;6.62;100.00;101001.91;4973205;28;20285;-84
2024/01/12 14:08:05;;;;;;;;;;;;;;;6.66;100.00;100998.41;4973263;28;19926;-83
2024/01/12 14:10:31;;;;;;;;;;;;;;;6.66;100.00;100999.25;4973280;28;20060;-82
2024/01/12 14:12:57;;;;;;;;;;;;;;;6.69;100.00;100998.38;4971953;28;20388;-85
2024/01/12 14:15:22;;;;;;;;;;;;;;;6.72;100.00;101007.13;4972303;28;19918;-83
2024/01/12 14:17:48;;;;;;;;;;;;;;;6.72;100.00;101003.63;4970699;28;19929;-82
2024/01/12 14:20:13;;;;;;;;;;;;;;;6.76;100.00;101004.47;4973031;28;19923;-80
2024/01/12 14:22:39;;;;;;;;;;;;;;;6.79;100.00;101005.31;4973347;28;20456;-80
2024/01/12 14:25:04;;;;;;;;;;;;;;;6.81;100.00;101008.81;4973302;28;20389;-81
2024/01/12 14:27:30;;;;;;;;;;;;;;;6.83;100.00;101007.03;4973032;28;19941;-80
2024/01/12 14:29:55;;;;;;;;;;;;;;;6.86;100.00;100988.56;4973209;28;20009;-79
2024/01/12 14:32:20;;;;;;;;;;;;;;;6.87;100.00;101000.84;4972848;28;19981;-79
2024/01/12 14:34:45;;;;;;;;;;;;;;;6.89;100.00;100996.44;4974294;28;19922;-80
2024/01/12 14:37:11;;;;;;;;;;;;;;;6.93;100.00;101002.56;4976804;28;19918;-79
2024/01/12 14:39:36;;;;;;;;;;;;;;;6.95;100.00;100987.59;4975682;28;20296;-78
2024/01/12 14:42:01;;;;;;;;;;;;;;;6.96;100.00;100992.00;4976836;28;20286;-79
2024/01/12 14:44:29;;;;;;;;;;;;;;;6.98;100.00;100995.50;4976844;28;20358;-80
2024/01/12 14:46:54;;;;;;;;;;;;;;;7.00;100.00;100988.44;4975543;28;19918;-79
2024/01/12 14:49:19;;;;;;;;;;;;;;;7.01;100.00;100992.81;4975349;28;19956;-79
2024/01/12 14:51:47;;;;;;;;;;;;;;;7.04;100.00;100995.44;4975420;28;19922;-78
2024/01/12 14:54:13;;;;;;;;;;;;;;;7.06;100.00;100991.00;4976436;28;20413;-79
2024/01/12 14:56:38;;;;;;;;;;;;;;;7.06;100.00;100988.38;4976627;28;19922;-79
2024/01/12 14:59:04;;;;;;;;;;;;;;;7.07;100.00;100991.91;4976633;28;19918;-77
2024/01/12 15:01:30;;;;;;;;;;;;;;;7.09;100.00;100996.25;4975269;28;19922;-78
2024/01/12 15:03:55;;;;;;;;;;;;;;;7.13;100.00;100983.06;4975222;28;19925;-77
2024/01/12 15:06:21;;;;;;;;;;;;;;;7.14;100.00;100984.81;4976432;28;20377;-76
2024/01/12 15:08:47;;;;;;;;;;;;;;;7.16;100.00;100983.03;4975834;28;19994;-76
2024/01/12 15:11:13;;;;;;;;;;;;;;;7.16;100.00;100983.88;4976376;28;19937;-79
2024/01/12 15:13:39;;;;;;;;;;;;;;;7.20;100.00;100984.75;4976049;28;19922;-79
2024/01/12 15:16:04;;;;;;;;;;;;;;;7.20;100.00;100984.75;4976587;28;19972;-78
2024/01/12 15:18:30;;;;;;;;;;;;;;;7.21;100.00;100984.75;4974783;28;19922;-79
2024/01/12 15:20:56;;;;;;;;;;;;;;;7.21;100.00;100986.47;4975938;28;20289;-79
2024/01/12 15:23:21;;;;;;;;;;;;;;;7.25;100.00;100986.44;4976072;28;20370;-77
2024/01/12 15:25:53;;;;;;;;;;;;;;;7.24;100.00;100986.47;4976117;28;19927;-86
2024/01/12 15:28:18;;;;;;;;;;;;;;;7.28;100.00;100990.81;4974827;28;19918;-81
2024/01/12 15:30:43;;;;;;;;;;;;;;;7.27;100.00;100986.44;4975918;28;19997;-80
2024/01/12 15:33:10;;;;;;;;;;;;;;;7.31;100.00;100985.53;4974659;28;20394;-78
2024/01/12 15:35:36;;;;;;;;;;;;;;;7.27;100.00;100982.06;4974401;28;19918;-79
2024/01/12 15:38:03;;;;;;;;;;;;;;;7.31;100.00;100977.59;4975905;28;19945;-78
2024/01/12 15:40:29;;;;;;;;;;;;;;;7.30;100.00;100973.22;4975775;28;20461;-78
2024/01/12 15:42:54;;;;;;;;;;;;;;;7.32;100.00;100970.56;4975695;28;20075;-77
2024/01/12 15:45:22;;;;;;;;;;;;;;;6.59;100.00;100971.22;4974204;28;20009;-78
2024/01/12 15:47:47;;;;;;;;;;;;;;;6.00;100.00;100976.00;4974275;28;20082;-78
2024/01/12 15:50:15;;;;;;;;;;;;;;;5.80;100.00;100978.66;4975382;28;19925;-89
2024/01/12 15:52:41;;;;;;;;;;;;;;;5.67;100.00;100983.09;4974828;28;20424;-79
2024/01/12 15:55:08;;;;;;;;;;;;;;;5.55;100.00;100975.25;4975237;28;19923;-78
2024/01/12 15:57:33;;;;;;;;;;;;;;;5.46;100.00;100973.53;4975434;28;19929;-80
2024/01/12 15:59:59;;;;;;;;;;;;;;;5.42;100.00;100977.03;4975390;28;20378;-77
2024/01/12 16:02:24;;;;;;;;;;;;;;;5.34;100.00;100990.19;4975152;28;20387;-77
2024/01/12 16:04:49;;;;;;;;;;;;;;;5.30;100.00;100999.00;4972997;28;20449;-80
2024/01/12 16:07:16;;;;;;;;;;;;;;;5.26;100.00;100987.63;4975280;28;20338;-82
2024/01/12 16:09:41;;;;;;;;;;;;;;;5.22;100.00;100993.75;4974377;28;19922;-79
2024/01/12 16:12:07;;;;;;;;;;;;;;;5.21;100.00;100991.13;4975165;28;19922;-78
2024/01/12 16:14:37;;;;;;;;;;;;;;;5.16;100.00;100985.88;4975150;28;19958;-77
2024/01/12 16:17:02;;;;;;;;;;;;;;;5.10;100.00;100988.50;4974451;28;19962;-79
2024/01/12 16:19:27;;;;;;;;;;;;;;;5.07;100.00;100989.38;4973707;28;20344;-79
2024/01/12 16:21:56;;;;;;;;;;;;;;;5.04;100.00;100985.88;4975169;28;20351;-80
2024/01/12 16:24:21;;;;;;;;;;;;;;;4.99;100.00;100983.25;4975040;28;19918;-90
2024/01/12 16:26:46;;;;;;;;;;;;;;;5.03;100.00;100992.03;4974970;28;20424;-79
2024/01/12 16:29:12;;;;;;;;;;;;;;;4.99;100.00;100988.50;4974943;28;19919;-78
2024/01/12 16:31:37;;;;;;;;;;;;;;;4.96;100.00;100998.13;4974726;28;19928;-82
2024/01/12 16:34:05;;;;;;;;;;;;;;;4.98;100.00;101001.63;4973851;28;19918;-82
2024/01/12 16:36:30;;;;;;;;;;;;;;;4.95;100.00;101007.78;4974811;28;19926;-80
2024/01/12 16:38:55;;;;;;;;;;;;;;;4.91;100.00;101006.91;4974944;28;19931;-78
2024/01/12 16:41:21;;;;;;;;;;;;;;;4.91;100.00;101011.28;4974626;28;19965;-81
2024/01/12 16:43:46;;;;;;;;;;;;;;;4.87;100.00;101005.16;4974610;28;19922;-82
2024/01/12 16:46:11;;;;;;;;;;;;;;;4.83;100.00;101013.03;4974467;28;19918;-80
2024/01/12 16:48:37;;;;;;;;;;;;;;;4.85;100.00;101019.16;4973310;28;19977;-78
2024/01/12 16:51:02;;;;;;;;;;;;;;;4.84;100.00;101026.16;4974563;28;19918;-79
2024/01/12 16:53:28;;;;;;;;;;;;;;;4.81;100.00;101025.28;4974448;28;19918;-80
2024/01/12 16:55:53;;;;;;;;;;;;;;;4.78;100.00;101025.28;4973749;28;19977;-80
2024/01/12 16:58:18;;;;;;;;;;;;;;;4.75;100.00;101020.91;4974048;28;19924;-81
2024/01/12 17:00:43;;;;;;;;;;;;;;;4.75;100.00;101022.66;4974161;28;19922;-83
2024/01/12 17:03:09;;;;;;;;;;;;;;;4.73;100.00;101023.53;4973289;28;20005;-78
2024/01/12 17:05:35;;;;;;;;;;;;;;;4.72;100.00;101021.78;4974262;28;20295;-79
2024/01/12 17:08:00;;;;;;;;;;;;;;;4.74;100.00;101034.91;4974620;28;19922;-79
2024/01/12 17:10:25;;;;;;;;;;;;;;;4.73;100.00;101030.53;4974295;28;19918;-77
2024/01/12 17:12:51;;;;;;;;;;;;;;;4.69;100.00;101023.50;4974099;28;19929;-80
2024/01/12 17:15:16;;;;;;;;;;;;;;;4.69;100.00;101020.88;4972891;28;19922;-80
2024/01/12 17:17:42;;;;;;;;;;;;;;;4.65;100.00;101008.66;4968808;28;19919;-80
2024/01/12 17:20:07;;;;;;;;;;;;;;;4.65;100.00;101019.16;4974181;28;19964;-85
2024/01/12 17:22:32;;;;;;;;;;;;;;;4.67;100.00;101022.66;4973869;28;19922;-78
2024/01/12 17:24:58;;;;;;;;;;;;;;;4.61;100.00;101023.53;4972740;28;19973;-78
2024/01/12 17:27:23;;;;;;;;;;;;;;;4.66;100.00;101027.03;4972581;28;19918;-78
2024/01/12 17:29:51;;;;;;;;;;;;;;;4.60;100.00;101023.53;4973851;28;20008;-80
2024/01/12 17:32:16;;;;;;;;;;;;;;;4.60;100.00;101026.16;4973732;28;19918;-79
2024/01/12 17:34:41;;;;;;;;;;;;;;;4.62;100.00;101019.16;4972423;28;19922;-81
2024/01/12 17:37:08;;;;;;;;;;;;;;;4.64;100.00;101022.63;4973828;28;19914;-76
2024/01/12 17:39:33;;;;;;;;;;;;;;;4.61;100.00;101027.88;4972503;28;19922;-80
2024/01/12 17:42:16;;;;;;;;;;;;;;;4.55;100.00;101027.00;4973910;28;20064;-80
2024/01/12 17:44:42;;;;;;;;;;;;;;;4.59;100.00;101027.00;4973466;28;20429;-83
2024/01/12 17:47:08;;;;;;;;;;;;;;;4.58;100.00;101026.16;4972290;28;20077;-80
2024/01/12 17:49:33;;;;;;;;;;;;;;;4.57;100.00;101027.00;4972423;28;19929;-82
2024/01/12 17:51:59;;;;;;;;;;;;;;;4.57;100.00;101023.53;4973693;28;20250;-83
2024/01/12 17:54:24;;;;;;;;;;;;;;;4.55;100.00;101021.75;4972075;28;20061;-84
2024/01/12 17:56:50;;;;;;;;;;;;;;;4.54;100.00;101027.88;4973487;28;20298;-81
2024/01/12 17:59:15;;;;;;;;;;;;;;;4.50;100.00;101026.13;4973355;28;19925;-80
2024/01/12 18:01:40;;;;;;;;;;;;;;;4.49;100.00;101028.75;4973394;28;19981;-79
2024/01/12 18:04:05;;;;;;;;;;;;;;;4.52;100.00;101024.38;4972224;28;19925;-80
2024/01/12 18:06:31;;;;;;;;;;;;;;;4.51;100.00;101027.00;4973391;28;20016;-79
2024/01/12 18:08:58;;;;;;;;;;;;;;;4.50;100.00;101026.13;4973161;28;19929;-79
2024/01/12 18:11:23;;;;;;;;;;;;;;;4.51;100.00;101027.00;4973369;28;19922;-79
2024/01/12 18:13:49;;;;;;;;;;;;;;;4.48;100.00;101022.63;4973041;28;20335;-81
2024/01/12 18:16:14;;;;;;;;;;;;;;;4.49;100.00;101027.00;4973155;28;19973;-86
2024/01/12 18:18:49;;;;;;;;;;;;;;;4.50;100.00;101035.72;4971972;28;19922;-92
2024/01/12 18:21:14;;;;;;;;;;;;;;;4.49;100.00;101034.00;4971507;28;20440;-83
2024/01/12 18:23:39;;;;;;;;;;;;;;;4.47;100.00;101036.63;4973178;28;19918;-86
2024/01/12 18:26:04;;;;;;;;;;;;;;;4.47;100.00;101036.63;4973120;28;19922;-82
2024/01/12 18:28:29;;;;;;;;;;;;;;;4.46;100.00;101050.59;4973123;28;20589;-82
2024/01/12 18:30:55;;;;;;;;;;;;;;;4.46;100.00;101045.34;4972895;28;19918;-81
2024/01/12 18:33:20;;;;;;;;;;;;;;;4.46;100.00;101040.09;4972052;28;19922;-83
2024/01/12 18:35:47;;;;;;;;;;;;;;;4.45;100.00;101038.38;4973094;28;19929;-83
2024/01/12 18:38:12;;;;;;;;;;;;;;;4.43;100.00;101039.22;4971148;28;19922;-81
2024/01/12 18:40:38;;;;;;;;;;;;;;;4.41;100.00;101047.09;4973028;28;19925;-84
2024/01/12 18:43:04;;;;;;;;;;;;;;;4.38;100.00;101039.22;4971568;28;19922;-82
2024/01/12 18:45:33;;;;;;;;;;;;;;;4.42;100.00;101043.63;4972972;28;19981;-82
2024/01/12 18:47:58;;;;;;;;;;;;;;;4.41;100.00;101047.09;4971681;28;20049;-80
2024/01/12 18:50:24;;;;;;;;;;;;;;;4.40;100.00;101040.09;4973146;28;20045;-80
2024/01/12 18:52:49;;;;;;;;;;;;;;;4.38;100.00;101041.84;4971417;28;19957;-83
2024/01/12 18:55:14;;;;;;;;;;;;;;;4.36;100.00;101035.72;4972682;28;19949;-82
2024/01/12 18:57:42;;;;;;;;;;;;;;;4.38;100.00;101030.47;4972715;28;20077;-84
2024/01/12 19:00:09;;;;;;;;;;;;;;;4.36;100.00;101040.97;4971572;28;19918;-81
2024/01/12 19:02:34;;;;;;;;;;;;;;;4.36;100.00;101033.09;4971538;28;20025;-80
2024/01/12 19:05:02;;;;;;;;;;;;;;;4.33;100.00;101039.19;4971737;28;20045;-88
2024/01/12 19:07:27;;;;;;;;;;;;;;;4.34;100.00;101033.09;4971445;28;19918;-82
2024/01/12 19:09:53;;;;;;;;;;;;;;;4.33;100.00;101043.59;4972583;28;20259;-80
2024/01/12 19:12:18;;;;;;;;;;;;;;;4.32;100.00;101039.19;4972492;28;19918;-80
2024/01/12 19:14:43;;;;;;;;;;;;;;;4.32;100.00;101029.59;4972660;28;20293;-80
2024/01/12 19:17:08;;;;;;;;;;;;;;;4.32;100.00;101037.47;4971352;28;19925;-82
2024/01/12 19:19:37;;;;;;;;;;;;;;;4.32;100.00;101031.31;4972015;28;19922;-80